sensor_id;sensor_type;location;lat;lon;timestamp;pressure;altitude;pressure_sealevel;temperature;humidity
13029;BME280;6581;42.662;23.402;2022-09-09T00:00:01;95552.59;;;19.54;76.57
13029;BME280;6581;42.662;23.402;2022-09-09T00:02:32;95552.66;;;19.51;76.94
13029;BME280;6581;42.662;23.402;2022-09-09T00:05:04;95550.44;;;19.45;76.88
13029;BME280;6581;42.662;23.402;2022-09-09T00:07:42;95542.03;;;19.40;77.08
13029;BME280;6581;42.662;23.402;2022-09-09T00:10:18;95546.66;;;19.39;77.36
13029;BME280;6581;42.662;23.402;2022-09-09T00:12:54;95555.84;;;19.42;77.59
13029;BME280;6581;42.662;23.402;2022-09-09T00:15:28;95542.47;;;19.38;77.53
13029;BME280;6581;42.662;23.402;2022-09-09T00:18:05;95551.31;;;19.35;77.59
13029;BME280;6581;42.662;23.402;2022-09-09T00:20:38;95548.28;;;19.33;77.83
13029;BME280;6581;42.662;23.402;2022-09-09T00:23:12;95546.06;;;19.28;78.04
13029;BME280;6581;42.662;23.402;2022-09-09T00:25:46;95542.25;;;19.26;78.09
13029;BME280;6581;42.662;23.402;2022-09-09T00:28:19;95535.78;;;19.23;78.29
13029;BME280;6581;42.662;23.402;2022-09-09T00:30:47;95531.63;;;19.19;78.00
13029;BME280;6581;42.662;23.402;2022-09-09T00:33:16;95528.88;;;19.22;78.03
13029;BME280;6581;42.662;23.402;2022-09-09T00:35:46;95525.81;;;19.24;77.86
13029;BME280;6581;42.662;23.402;2022-09-09T00:38:17;95526.59;;;19.21;78.29
13029;BME280;6581;42.662;23.402;2022-09-09T00:40:50;95514.75;;;19.18;78.39
13029;BME280;6581;42.662;23.402;2022-09-09T00:43:26;95515.91;;;19.17;78.52
13029;BME280;6581;42.662;23.402;2022-09-09T00:46:16;95513.38;;;19.07;79.01
13029;BME280;6581;42.662;23.402;2022-09-09T00:48:55;95502.31;;;19.04;79.43
13029;BME280;6581;42.662;23.402;2022-09-09T00:51:30;95505.44;;;18.99;79.68
13029;BME280;6581;42.662;23.402;2022-09-09T00:54:20;95506.66;;;18.95;80.04
13029;BME280;6581;42.662;23.402;2022-09-09T00:56:58;95513.56;;;18.96;80.26
13029;BME280;6581;42.662;23.402;2022-09-09T00:59:45;95514.75;;;18.91;80.71
13029;BME280;6581;42.662;23.402;2022-09-09T01:02:18;95502.56;;;18.87;81.28
13029;BME280;6581;42.662;23.402;2022-09-09T01:04:48;95506.84;;;18.81;81.66
13029;BME280;6581;42.662;23.402;2022-09-09T01:07:17;95505.75;;;18.78;81.76
13029;BME280;6581;42.662;23.402;2022-09-09T01:09:54;95501.94;;;18.76;81.52
13029;BME280;6581;42.662;23.402;2022-09-09T01:12:30;95503.09;;;18.75;81.50
13029;BME280;6581;42.662;23.402;2022-09-09T01:15:08;95514.31;;;18.70;81.89
13029;BME280;6581;42.662;23.402;2022-09-09T01:17:52;95517.44;;;18.65;82.47
13029;BME280;6581;42.662;23.402;2022-09-09T01:20:24;95515.53;;;18.62;83.21
13029;BME280;6581;42.662;23.402;2022-09-09T01:23:14;95511.38;;;18.57;83.22
13029;BME280;6581;42.662;23.402;2022-09-09T01:26:26;95514.38;;;18.63;82.77
13029;BME280;6581;42.662;23.402;2022-09-09T01:29:23;95510.22;;;18.58;83.32
13029;BME280;6581;42.662;23.402;2022-09-09T01:31:55;95510.31;;;18.47;84.23
13029;BME280;6581;42.662;23.402;2022-09-09T01:34:25;95505.38;;;18.46;84.64
13029;BME280;6581;42.662;23.402;2022-09-09T01:37:18;95510.03;;;18.42;84.86
13029;BME280;6581;42.662;23.402;2022-09-09T01:39:45;95513.53;;;18.35;84.81
13029;BME280;6581;42.662;23.402;2022-09-09T01:42:17;95512.06;;;18.31;84.88
13029;BME280;6581;42.662;23.402;2022-09-09T01:44:45;95524.63;;;18.37;84.88
13029;BME280;6581;42.662;23.402;2022-09-09T01:47:12;95520.88;;;18.31;85.27
13029;BME280;6581;42.662;23.402;2022-09-09T01:50:07;95521.97;;;18.34;85.22
13029;BME280;6581;42.662;23.402;2022-09-09T01:52:36;95520.09;;;18.31;85.68
13029;BME280;6581;42.662;23.402;2022-09-09T01:55:07;95525.09;;;18.32;85.41
13029;BME280;6581;42.662;23.402;2022-09-09T01:57:46;95526.63;;;18.30;85.23
13029;BME280;6581;42.662;23.402;2022-09-09T02:00:16;95527.84;;;18.25;85.56
13029;BME280;6581;42.662;23.402;2022-09-09T02:02:56;95535.16;;;18.21;85.71
13029;BME280;6581;42.662;23.402;2022-09-09T02:05:37;95529.34;;;18.26;85.42
13029;BME280;6581;42.662;23.402;2022-09-09T02:08:16;95530.13;;;18.27;85.43
13029;BME280;6581;42.662;23.402;2022-09-09T02:10:56;95530.16;;;18.23;85.56
13029;BME280;6581;42.662;23.402;2022-09-09T02:14:04;95522.84;;;18.27;85.80
13029;BME280;6581;42.662;23.402;2022-09-09T02:16:38;95527.84;;;18.25;86.24
13029;BME280;6581;42.662;23.402;2022-09-09T02:19:10;95510.22;;;18.24;85.77
13029;BME280;6581;42.662;23.402;2022-09-09T02:21:52;95511.41;;;18.20;86.28
13029;BME280;6581;42.662;23.402;2022-09-09T02:24:21;95517.16;;;18.22;85.93
13029;BME280;6581;42.662;23.402;2022-09-09T02:26:59;95501.44;;;18.24;85.80
13029;BME280;6581;42.662;23.402;2022-09-09T02:29:35;95498.00;;;18.20;85.54
13029;BME280;6581;42.662;23.402;2022-09-09T02:32:06;95511.84;;;18.18;85.45
13029;BME280;6581;42.662;23.402;2022-09-09T02:34:40;95507.19;;;18.22;85.11
13029;BME280;6581;42.662;23.402;2022-09-09T02:37:11;95509.91;;;18.19;85.16
13029;BME280;6581;42.662;23.402;2022-09-09T02:39:42;95509.53;;;18.16;85.40
13029;BME280;6581;42.662;23.402;2022-09-09T02:42:13;95510.75;;;18.12;85.96
13029;BME280;6581;42.662;23.402;2022-09-09T02:44:44;95515.78;;;18.06;85.91
13029;BME280;6581;42.662;23.402;2022-09-09T02:47:25;95523.81;;;18.10;85.91
13029;BME280;6581;42.662;23.402;2022-09-09T02:50:02;95531.88;;;18.06;86.53
13029;BME280;6581;42.662;23.402;2022-09-09T02:52:38;95531.56;;;17.97;86.52
13029;BME280;6581;42.662;23.402;2022-09-09T02:55:17;95533.50;;;17.97;86.75
13029;BME280;6581;42.662;23.402;2022-09-09T02:57:50;95532.41;;;17.91;87.57
13029;BME280;6581;42.662;23.402;2022-09-09T03:00:24;95526.63;;;17.92;87.37
13029;BME280;6581;42.662;23.402;2022-09-09T03:02:52;95528.13;;;17.97;87.52
13029;BME280;6581;42.662;23.402;2022-09-09T03:05:20;95530.91;;;17.90;87.83
13029;BME280;6581;42.662;23.402;2022-09-09T03:07:49;95523.56;;;17.94;88.20
13029;BME280;6581;42.662;23.402;2022-09-09T03:10:19;95526.00;;;17.81;89.54
13029;BME280;6581;42.662;23.402;2022-09-09T03:12:46;95532.13;;;17.82;89.75
13029;BME280;6581;42.662;23.402;2022-09-09T03:15:16;95535.91;;;17.84;90.67
13029;BME280;6581;42.662;23.402;2022-09-09T03:17:46;95530.59;;;17.81;92.73
13029;BME280;6581;42.662;23.402;2022-09-09T03:20:13;95535.19;;;17.80;92.63
13029;BME280;6581;42.662;23.402;2022-09-09T03:22:41;95537.06;;;17.83;92.53
13029;BME280;6581;42.662;23.402;2022-09-09T03:25:10;95534.00;;;17.85;92.55
13029;BME280;6581;42.662;23.402;2022-09-09T03:27:38;95531.75;;;17.80;91.75
13029;BME280;6581;42.662;23.402;2022-09-09T03:30:07;95531.78;;;17.76;90.91
13029;BME280;6581;42.662;23.402;2022-09-09T03:32:35;95525.28;;;17.77;90.60
13029;BME280;6581;42.662;23.402;2022-09-09T03:35:04;95531.06;;;17.72;89.94
13029;BME280;6581;42.662;23.402;2022-09-09T03:37:32;95526.91;;;17.67;90.48
13029;BME280;6581;42.662;23.402;2022-09-09T03:39:59;95523.81;;;17.69;91.66
13029;BME280;6581;42.662;23.402;2022-09-09T03:42:27;95535.75;;;17.61;92.06
13029;BME280;6581;42.662;23.402;2022-09-09T03:44:57;95533.88;;;17.54;91.85
13029;BME280;6581;42.662;23.402;2022-09-09T03:47:26;95529.63;;;17.57;91.36
13029;BME280;6581;42.662;23.402;2022-09-09T03:49:58;95531.53;;;17.56;91.41
13029;BME280;6581;42.662;23.402;2022-09-09T03:52:31;95533.16;;;17.50;90.45
13029;BME280;6581;42.662;23.402;2022-09-09T03:54:58;95536.25;;;17.45;88.98
13029;BME280;6581;42.662;23.402;2022-09-09T03:57:25;95532.81;;;17.45;88.45
13029;BME280;6581;42.662;23.402;2022-09-09T03:59:52;95539.69;;;17.46;87.07
13029;BME280;6581;42.662;23.402;2022-09-09T04:02:20;95538.94;;;17.42;87.50
13029;BME280;6581;42.662;23.402;2022-09-09T04:04:47;95538.94;;;17.42;88.63
13029;BME280;6581;42.662;23.402;2022-09-09T04:07:15;95535.13;;;17.39;89.90
13029;BME280;6581;42.662;23.402;2022-09-09T04:09:44;95544.31;;;17.38;89.98
13029;BME280;6581;42.662;23.402;2022-09-09T04:12:13;95546.97;;;17.42;89.06
13029;BME280;6581;42.662;23.402;2022-09-09T04:14:41;95551.28;;;17.28;88.65
13029;BME280;6581;42.662;23.402;2022-09-09T04:17:08;95545.56;;;17.26;87.81
13029;BME280;6581;42.662;23.402;2022-09-09T04:19:36;95537.91;;;17.25;88.54
13029;BME280;6581;42.662;23.402;2022-09-09T04:22:04;95539.44;;;17.26;89.25
13029;BME280;6581;42.662;23.402;2022-09-09T04:24:32;95537.88;;;17.28;89.85
13029;BME280;6581;42.662;23.402;2022-09-09T04:27:02;95537.50;;;17.30;89.64
13029;BME280;6581;42.662;23.402;2022-09-09T04:29:30;95538.63;;;17.33;89.87
13029;BME280;6581;42.662;23.402;2022-09-09T04:32:22;95533.28;;;17.29;89.83
13029;BME280;6581;42.662;23.402;2022-09-09T04:34:52;95539.38;;;17.33;89.76
13029;BME280;6581;42.662;23.402;2022-09-09T04:37:20;95536.69;;;17.37;89.50
13029;BME280;6581;42.662;23.402;2022-09-09T04:39:47;95547.72;;;17.42;89.40
13029;BME280;6581;42.662;23.402;2022-09-09T04:42:17;95543.53;;;17.45;89.33
13029;BME280;6581;42.662;23.402;2022-09-09T04:44:46;95549.22;;;17.47;89.52
13029;BME280;6581;42.662;23.402;2022-09-09T04:47:14;95555.34;;;17.47;90.02
13029;BME280;6581;42.662;23.402;2022-09-09T04:49:41;95556.41;;;17.57;89.98
13029;BME280;6581;42.662;23.402;2022-09-09T04:52:08;95544.53;;;17.61;89.97
13029;BME280;6581;42.662;23.402;2022-09-09T04:54:36;95538.81;;;17.63;90.26
13029;BME280;6581;42.662;23.402;2022-09-09T04:57:04;95535.66;;;17.71;90.22
13029;BME280;6581;42.662;23.402;2022-09-09T04:59:58;95525.72;;;17.72;90.38
13029;BME280;6581;42.662;23.402;2022-09-09T05:02:31;95528.69;;;17.81;89.34
13029;BME280;6581;42.662;23.402;2022-09-09T05:04:58;95528.28;;;17.83;88.89
13029;BME280;6581;42.662;23.402;2022-09-09T05:07:26;95537.78;;;17.91;89.31
13029;BME280;6581;42.662;23.402;2022-09-09T05:09:54;95526.63;;;17.96;89.80
13029;BME280;6581;42.662;23.402;2022-09-09T05:12:22;95521.56;;;18.05;89.40
13029;BME280;6581;42.662;23.402;2022-09-09T05:14:51;95509.66;;;18.06;88.36
13029;BME280;6581;42.662;23.402;2022-09-09T05:17:20;95515.66;;;18.17;87.24
13029;BME280;6581;42.662;23.402;2022-09-09T05:19:47;95514.06;;;18.23;86.90
13029;BME280;6581;42.662;23.402;2022-09-09T05:22:18;95516.28;;;18.32;86.98
13029;BME280;6581;42.662;23.402;2022-09-09T05:24:48;95517.38;;;18.34;86.70
13029;BME280;6581;42.662;23.402;2022-09-09T05:27:17;95514.34;;;18.32;85.50
13029;BME280;6581;42.662;23.402;2022-09-09T05:29:45;95512.81;;;18.31;84.93
13029;BME280;6581;42.662;23.402;2022-09-09T05:32:14;95516.53;;;18.41;84.75
13029;BME280;6581;42.662;23.402;2022-09-09T05:34:47;95514.50;;;18.55;84.25
13029;BME280;6581;42.662;23.402;2022-09-09T05:37:16;95515.84;;;18.67;84.44
13029;BME280;6581;42.662;23.402;2022-09-09T05:39:44;95514.25;;;18.73;83.36
13029;BME280;6581;42.662;23.402;2022-09-09T05:42:12;95512.63;;;18.79;82.37
13029;BME280;6581;42.662;23.402;2022-09-09T05:44:39;95511.38;;;18.87;83.18
13029;BME280;6581;42.662;23.402;2022-09-09T05:47:07;95520.72;;;19.02;82.00
13029;BME280;6581;42.662;23.402;2022-09-09T05:49:35;95519.22;;;19.01;79.56
13029;BME280;6581;42.662;23.402;2022-09-09T05:52:04;95529.47;;;19.10;78.98
13029;BME280;6581;42.662;23.402;2022-09-09T05:54:32;95532.09;;;19.14;78.95
13029;BME280;6581;42.662;23.402;2022-09-09T05:56:59;95529.72;;;19.16;79.05
13029;BME280;6581;42.662;23.402;2022-09-09T05:59:28;95517.91;;;19.13;80.06
13029;BME280;6581;42.662;23.402;2022-09-09T06:01:56;95530.56;;;19.13;80.16
13029;BME280;6581;42.662;23.402;2022-09-09T06:04:34;95534.31;;;19.19;79.29
13029;BME280;6581;42.662;23.402;2022-09-09T06:07:04;95537.41;;;19.17;78.24
13029;BME280;6581;42.662;23.402;2022-09-09T06:09:31;95542.06;;;19.13;76.54
13029;BME280;6581;42.662;23.402;2022-09-09T06:11:59;95544.28;;;19.18;76.01
13029;BME280;6581;42.662;23.402;2022-09-09T06:14:26;95552.53;;;19.31;75.58
13029;BME280;6581;42.662;23.402;2022-09-09T06:16:56;95548.63;;;19.35;75.40
13029;BME280;6581;42.662;23.402;2022-09-09T06:19:28;95549.34;;;19.39;74.58
13029;BME280;6581;42.662;23.402;2022-09-09T06:21:58;95540.03;;;19.48;74.28
13029;BME280;6581;42.662;23.402;2022-09-09T06:24:28;95533.53;;;19.45;74.38
13029;BME280;6581;42.662;23.402;2022-09-09T06:26:56;95540.31;;;19.53;73.19
13029;BME280;6581;42.662;23.402;2022-09-09T06:29:28;95549.44;;;19.59;73.36
13029;BME280;6581;42.662;23.402;2022-09-09T06:31:55;95547.00;;;19.68;73.93
13029;BME280;6581;42.662;23.402;2022-09-09T06:34:26;95549.50;;;19.79;73.53
13029;BME280;6581;42.662;23.402;2022-09-09T06:36:56;95536.34;;;19.84;72.73
13029;BME280;6581;42.662;23.402;2022-09-09T06:39:50;95535.38;;;19.95;72.36
13029;BME280;6581;42.662;23.402;2022-09-09T06:42:18;95533.75;;;20.01;71.73
13029;BME280;6581;42.662;23.402;2022-09-09T06:44:48;95529.53;;;20.00;71.44
13029;BME280;6581;42.662;23.402;2022-09-09T06:47:28;95530.13;;;20.11;71.37
13029;BME280;6581;42.662;23.402;2022-09-09T06:49:57;95526.53;;;20.17;70.47
13029;BME280;6581;42.662;23.402;2022-09-09T06:52:24;95532.84;;;20.30;69.92
13029;BME280;6581;42.662;23.402;2022-09-09T06:54:54;95525.81;;;20.37;70.44
13029;BME280;6581;42.662;23.402;2022-09-09T06:57:25;95537.72;;;20.55;70.74
13029;BME280;6581;42.662;23.402;2022-09-09T06:59:53;95538.97;;;20.70;70.38
13029;BME280;6581;42.662;23.402;2022-09-09T07:02:45;95552.56;;;20.99;68.92
13029;BME280;6581;42.662;23.402;2022-09-09T07:05:13;95547.81;;;21.07;66.00
13029;BME280;6581;42.662;23.402;2022-09-09T07:07:42;95551.22;;;21.27;65.00
13029;BME280;6581;42.662;23.402;2022-09-09T07:10:12;95546.16;;;21.45;64.08
13029;BME280;6581;42.662;23.402;2022-09-09T07:13:05;95545.84;;;21.59;63.07
13029;BME280;6581;42.662;23.402;2022-09-09T07:15:33;95541.03;;;21.35;62.61
13029;BME280;6581;42.662;23.402;2022-09-09T07:18:01;95532.19;;;21.34;63.27
13029;BME280;6581;42.662;23.402;2022-09-09T07:20:29;95538.25;;;21.54;63.49
13029;BME280;6581;42.662;23.402;2022-09-09T07:22:56;95541.53;;;21.78;62.78
13029;BME280;6581;42.662;23.402;2022-09-09T07:25:26;95541.53;;;21.94;63.33
13029;BME280;6581;42.662;23.402;2022-09-09T07:27:56;95538.28;;;22.16;61.50
13029;BME280;6581;42.662;23.402;2022-09-09T07:30:23;95526.09;;;22.24;60.04
13029;BME280;6581;42.662;23.402;2022-09-09T07:32:51;95536.22;;;22.36;59.69
13029;BME280;6581;42.662;23.402;2022-09-09T07:35:19;95533.13;;;22.50;59.78
13029;BME280;6581;42.662;23.402;2022-09-09T07:37:47;95522.34;;;22.63;59.12
13029;BME280;6581;42.662;23.402;2022-09-09T07:40:14;95526.97;;;22.62;58.90
13029;BME280;6581;42.662;23.402;2022-09-09T07:42:43;95522.56;;;22.68;58.71
13029;BME280;6581;42.662;23.402;2022-09-09T07:45:10;95524.13;;;22.82;59.36
13029;BME280;6581;42.662;23.402;2022-09-09T07:47:38;95535.47;;;23.02;59.32
13029;BME280;6581;42.662;23.402;2022-09-09T07:50:06;95536.69;;;23.14;57.50
13029;BME280;6581;42.662;23.402;2022-09-09T07:52:35;95541.44;;;23.35;57.21
13029;BME280;6581;42.662;23.402;2022-09-09T07:55:05;95536.16;;;23.44;56.58
13029;BME280;6581;42.662;23.402;2022-09-09T07:57:33;95533.41;;;23.57;56.18
13029;BME280;6581;42.662;23.402;2022-09-09T08:02:38;95527.22;;;23.81;54.52
13029;BME280;6581;42.662;23.402;2022-09-09T08:05:06;95524.47;;;23.94;54.72
13029;BME280;6581;42.662;23.402;2022-09-09T08:07:33;95516.22;;;23.98;54.33
13029;BME280;6581;42.662;23.402;2022-09-09T08:10:01;95534.63;;;24.37;53.32
13029;BME280;6581;42.662;23.402;2022-09-09T08:12:56;95530.19;;;24.52;53.03
13029;BME280;6581;42.662;23.402;2022-09-09T08:15:24;95528.94;;;24.88;51.58
13029;BME280;6581;42.662;23.402;2022-09-09T08:17:52;95528.22;;;24.96;51.37
13029;BME280;6581;42.662;23.402;2022-09-09T08:20:19;95531.00;;;25.14;50.38
13029;BME280;6581;42.662;23.402;2022-09-09T08:22:49;95535.88;;;25.29;50.71
13029;BME280;6581;42.662;23.402;2022-09-09T08:25:17;95523.88;;;25.48;50.37
13029;BME280;6581;42.662;23.402;2022-09-09T08:27:44;95520.78;;;25.68;50.13
13029;BME280;6581;42.662;23.402;2022-09-09T08:30:12;95516.13;;;25.77;49.16
13029;BME280;6581;42.662;23.402;2022-09-09T08:32:41;95517.47;;;25.82;49.97
13029;BME280;6581;42.662;23.402;2022-09-09T08:35:09;95515.09;;;26.02;48.83
13029;BME280;6581;42.662;23.402;2022-09-09T08:37:37;95514.34;;;26.20;48.57
13029;BME280;6581;42.662;23.402;2022-09-09T08:40:09;95514.97;;;26.24;48.75
13029;BME280;6581;42.662;23.402;2022-09-09T08:42:45;95517.50;;;26.36;47.86
13029;BME280;6581;42.662;23.402;2022-09-09T08:45:48;95515.72;;;26.33;46.88
13029;BME280;6581;42.662;23.402;2022-09-09T08:48:34;95514.59;;;26.58;45.64
13029;BME280;6581;42.662;23.402;2022-09-09T08:51:07;95509.19;;;26.67;46.03
13029;BME280;6581;42.662;23.402;2022-09-09T08:53:41;95516.66;;;26.90;45.74
13029;BME280;6581;42.662;23.402;2022-09-09T08:56:13;95513.78;;;27.03;45.24
13029;BME280;6581;42.662;23.402;2022-09-09T08:58:52;95519.53;;;26.96;44.63
13029;BME280;6581;42.662;23.402;2022-09-09T09:01:54;95499.69;;;26.54;44.99
13029;BME280;6581;42.662;23.402;2022-09-09T09:04:47;95499.81;;;26.59;45.99
13029;BME280;6581;42.662;23.402;2022-09-09T09:07:31;95502.97;;;26.76;46.17
13029;BME280;6581;42.662;23.402;2022-09-09T09:10:11;95507.13;;;26.95;45.51
13029;BME280;6581;42.662;23.402;2022-09-09T09:12:44;95509.34;;;27.15;44.99
13029;BME280;6581;42.662;23.402;2022-09-09T09:15:19;95497.50;;;26.94;44.59
13029;BME280;6581;42.662;23.402;2022-09-09T09:17:50;95513.00;;;27.12;45.01
13029;BME280;6581;42.662;23.402;2022-09-09T09:20:27;95498.19;;;27.13;45.11
13029;BME280;6581;42.662;23.402;2022-09-09T09:23:01;95502.28;;;27.08;44.84
13029;BME280;6581;42.662;23.402;2022-09-09T09:25:34;95494.56;;;27.40;44.63
13029;BME280;6581;42.662;23.402;2022-09-09T09:28:11;95491.78;;;27.58;44.12
13029;BME280;6581;42.662;23.402;2022-09-09T09:30:48;95500.84;;;27.78;43.89
13029;BME280;6581;42.662;23.402;2022-09-09T09:33:22;95495.94;;;27.68;42.96
13029;BME280;6581;42.662;23.402;2022-09-09T09:35:53;95499.19;;;27.96;42.98
13029;BME280;6581;42.662;23.402;2022-09-09T09:38:23;95499.00;;;27.85;43.02
13029;BME280;6581;42.662;23.402;2022-09-09T09:40:56;95493.31;;;27.97;43.87
13029;BME280;6581;42.662;23.402;2022-09-09T09:43:27;95495.34;;;27.88;43.04
13029;BME280;6581;42.662;23.402;2022-09-09T09:45:58;95496.78;;;27.50;43.93
13029;BME280;6581;42.662;23.402;2022-09-09T09:48:27;95493.47;;;27.46;44.26
13029;BME280;6581;42.662;23.402;2022-09-09T09:50:57;95487.16;;;27.49;44.39
13029;BME280;6581;42.662;23.402;2022-09-09T09:53:27;95481.22;;;27.51;43.66
13029;BME280;6581;42.662;23.402;2022-09-09T09:56:00;95476.09;;;27.44;42.98
13029;BME280;6581;42.662;23.402;2022-09-09T09:58:31;95473.81;;;27.51;43.91
13029;BME280;6581;42.662;23.402;2022-09-09T10:01:01;95470.41;;;27.65;44.19
13029;BME280;6581;42.662;23.402;2022-09-09T10:03:57;95475.38;;;27.67;43.96
13029;BME280;6581;42.662;23.402;2022-09-09T10:06:32;95471.16;;;27.66;43.88
13029;BME280;6581;42.662;23.402;2022-09-09T10:09:01;95464.56;;;27.82;43.89
13029;BME280;6581;42.662;23.402;2022-09-09T10:11:44;95478.53;;;28.13;43.26
13029;BME280;6581;42.662;23.402;2022-09-09T10:14:19;95486.06;;;28.33;43.62
13029;BME280;6581;42.662;23.402;2022-09-09T10:17:03;95479.78;;;28.27;42.62
13029;BME280;6581;42.662;23.402;2022-09-09T10:19:36;95484.28;;;28.30;42.15
13029;BME280;6581;42.662;23.402;2022-09-09T10:22:23;95482.56;;;27.79;43.36
13029;BME280;6581;42.662;23.402;2022-09-09T10:25:29;95487.53;;;27.81;43.22
13029;BME280;6581;42.662;23.402;2022-09-09T10:28:42;95486.91;;;27.29;44.25
13029;BME280;6581;42.662;23.402;2022-09-09T10:31:46;95482.63;;;27.04;44.97
13029;BME280;6581;42.662;23.402;2022-09-09T10:34:27;95479.50;;;26.97;45.27
13029;BME280;6581;42.662;23.402;2022-09-09T10:37:11;95487.97;;;26.99;45.88
13029;BME280;6581;42.662;23.402;2022-09-09T10:39:44;95488.25;;;27.01;46.36
13029;BME280;6581;42.662;23.402;2022-09-09T10:42:12;95487.78;;;27.02;46.53
13029;BME280;6581;42.662;23.402;2022-09-09T10:44:54;95487.19;;;27.07;45.67
13029;BME280;6581;42.662;23.402;2022-09-09T10:47:55;95490.50;;;27.02;45.68
13029;BME280;6581;42.662;23.402;2022-09-09T10:50:35;95486.72;;;27.00;46.27
13029;BME280;6581;42.662;23.402;2022-09-09T10:53:12;95490.50;;;27.02;46.97
13029;BME280;6581;42.662;23.402;2022-09-09T10:55:44;95495.75;;;27.15;46.53
13029;BME280;6581;42.662;23.402;2022-09-09T10:58:19;95488.78;;;27.14;46.32
13029;BME280;6581;42.662;23.402;2022-09-09T11:00:53;95487.34;;;27.04;45.33
13029;BME280;6581;42.662;23.402;2022-09-09T11:03:24;95476.63;;;27.00;45.98
13029;BME280;6581;42.662;23.402;2022-09-09T11:06:20;95477.81;;;27.08;46.18
13029;BME280;6581;42.662;23.402;2022-09-09T11:08:49;95484.31;;;27.02;46.01
13029;BME280;6581;42.662;23.402;2022-09-09T11:11:21;95484.53;;;26.89;45.78
13029;BME280;6581;42.662;23.402;2022-09-09T11:13:56;95484.38;;;26.74;46.03
13029;BME280;6581;42.662;23.402;2022-09-09T11:16:28;95487.56;;;26.73;47.13
13029;BME280;6581;42.662;23.402;2022-09-09T11:19:00;95491.63;;;26.77;47.59
13029;BME280;6581;42.662;23.402;2022-09-09T11:21:33;95484.09;;;26.63;46.77
13029;BME280;6581;42.662;23.402;2022-09-09T11:24:04;95479.47;;;26.55;46.99
13029;BME280;6581;42.662;23.402;2022-09-09T11:26:45;95469.13;;;26.26;47.92
13029;BME280;6581;42.662;23.402;2022-09-09T11:29:45;95476.25;;;26.74;47.40
13029;BME280;6581;42.662;23.402;2022-09-09T11:32:44;95468.06;;;26.93;47.03
13029;BME280;6581;42.662;23.402;2022-09-09T11:35:29;95461.19;;;27.06;46.93
13029;BME280;6581;42.662;23.402;2022-09-09T11:38:17;95450.97;;;26.92;46.41
13029;BME280;6581;42.662;23.402;2022-09-09T11:40:46;95446.09;;;27.05;47.91
13029;BME280;6581;42.662;23.402;2022-09-09T11:43:19;95443.84;;;27.04;46.66
13029;BME280;6581;42.662;23.402;2022-09-09T11:45:51;95433.63;;;26.89;47.17
13029;BME280;6581;42.662;23.402;2022-09-09T11:48:30;95439.69;;;27.17;47.74
13029;BME280;6581;42.662;23.402;2022-09-09T11:51:00;95428.69;;;27.12;46.92
13029;BME280;6581;42.662;23.402;2022-09-09T11:53:28;95422.25;;;27.00;46.88
13029;BME280;6581;42.662;23.402;2022-09-09T11:56:01;95400.44;;;27.09;46.40
13029;BME280;6581;42.662;23.402;2022-09-09T11:58:36;95397.72;;;27.09;46.66
13029;BME280;6581;42.662;23.402;2022-09-09T12:01:16;95395.44;;;27.17;47.85
13029;BME280;6581;42.662;23.402;2022-09-09T12:06:43;95398.25;;;26.99;47.05
13029;BME280;6581;42.662;23.402;2022-09-09T12:09:22;95406.88;;;27.21;47.33
13029;BME280;6581;42.662;23.402;2022-09-09T12:11:52;95416.53;;;27.46;47.64
13029;BME280;6581;42.662;23.402;2022-09-09T12:14:23;95408.25;;;27.49;46.66
13029;BME280;6581;42.662;23.402;2022-09-09T12:17:10;95402.66;;;27.44;47.51
13029;BME280;6581;42.662;23.402;2022-09-09T12:19:37;95397.41;;;27.40;48.14
13029;BME280;6581;42.662;23.402;2022-09-09T12:22:08;95395.44;;;27.41;47.38
13029;BME280;6581;42.662;23.402;2022-09-09T12:24:43;95388.25;;;27.52;46.75
13029;BME280;6581;42.662;23.402;2022-09-09T12:27:18;95382.22;;;27.87;46.37
13029;BME280;6581;42.662;23.402;2022-09-09T12:29:55;95388.19;;;28.14;45.59
13029;BME280;6581;42.662;23.402;2022-09-09T12:32:25;95385.00;;;28.31;45.76
13029;BME280;6581;42.662;23.402;2022-09-09T12:34:56;95383.50;;;28.44;45.13
13029;BME280;6581;42.662;23.402;2022-09-09T12:37:31;95380.25;;;28.60;45.51
13029;BME280;6581;42.662;23.402;2022-09-09T12:40:01;95377.78;;;28.28;44.22
13029;BME280;6581;42.662;23.402;2022-09-09T12:42:30;95366.28;;;28.24;44.40
13029;BME280;6581;42.662;23.402;2022-09-09T12:45:02;95366.78;;;28.22;44.59
13029;BME280;6581;42.662;23.402;2022-09-09T12:47:39;95358.84;;;28.09;45.60
13029;BME280;6581;42.662;23.402;2022-09-09T12:50:19;95358.81;;;28.18;45.58
13029;BME280;6581;42.662;23.402;2022-09-09T12:52:48;95359.53;;;28.34;44.37
13029;BME280;6581;42.662;23.402;2022-09-09T12:55:20;95362.66;;;28.41;44.59
13029;BME280;6581;42.662;23.402;2022-09-09T12:57:51;95366.75;;;28.51;45.03
13029;BME280;6581;42.662;23.402;2022-09-09T13:00:22;95362.22;;;28.63;45.10
13029;BME280;6581;42.662;23.402;2022-09-09T13:02:51;95351.22;;;28.72;44.61
13029;BME280;6581;42.662;23.402;2022-09-09T13:05:22;95342.09;;;28.75;44.25
13029;BME280;6581;42.662;23.402;2022-09-09T13:07:49;95335.31;;;28.85;44.19
13029;BME280;6581;42.662;23.402;2022-09-09T13:10:23;95338.25;;;28.67;45.30
13029;BME280;6581;42.662;23.402;2022-09-09T13:12:52;95354.19;;;28.39;45.26
13029;BME280;6581;42.662;23.402;2022-09-09T13:15:23;95341.41;;;28.31;45.21
13029;BME280;6581;42.662;23.402;2022-09-09T13:17:55;95338.97;;;28.03;46.98
13029;BME280;6581;42.662;23.402;2022-09-09T13:20:23;95330.22;;;27.70;47.62
13029;BME280;6581;42.662;23.402;2022-09-09T13:22:52;95335.53;;;27.64;47.47
13029;BME280;6581;42.662;23.402;2022-09-09T13:25:23;95338.84;;;27.54;49.83
13029;BME280;6581;42.662;23.402;2022-09-09T13:27:59;95329.72;;;27.57;49.25
13029;BME280;6581;42.662;23.402;2022-09-09T13:30:31;95330.31;;;27.75;47.56
13029;BME280;6581;42.662;23.402;2022-09-09T13:33:20;95320.09;;;27.85;47.66
13029;BME280;6581;42.662;23.402;2022-09-09T13:35:50;95309.94;;;27.71;48.20
13029;BME280;6581;42.662;23.402;2022-09-09T13:38:19;95314.06;;;27.66;48.79